Time;durP1;ratioP1;P1;durP2;ratioP2;P2;SDS_P1;SDS_P2;PMS_P1;PMS_P2;Temp;Humidity;BMP_temperature;BMP_pressure;BME280_temperature;BME280_humidity;BME280_pressure;Samples;Min_cycle;Max_cycle;Signal;HPM_P1;HPM_P2
2021/12/09 00:01:09;;;;;;;8.02;3.33;;;;;;;3.48;100.00;99768.91;4970220;28;20034;-71
2021/12/09 00:03:39;;;;;;;10.65;5.20;;;;;;;3.44;100.00;99775.97;4970427;28;20551;-73
2021/12/09 00:06:08;;;;;;;17.55;4.68;;;;;;;3.44;100.00;99770.66;4964990;28;20062;-71
2021/12/09 00:08:37;;;;;;;7.13;3.92;;;;;;;3.48;100.00;99763.56;4967386;28;20059;-71
2021/12/09 00:11:05;;;;;;;8.32;3.88;;;;;;;3.51;100.00;99771.66;4956485;28;20492;-71
2021/12/09 00:13:30;;;;;;;15.50;4.30;;;;;;;3.48;100.00;99759.00;4963387;28;20027;-71
2021/12/09 00:15:56;;;;;;;13.55;5.35;;;;;;;3.51;100.00;99774.34;4970835;28;20039;-71
2021/12/09 00:18:22;;;;;;;13.32;4.90;;;;;;;3.49;100.00;99763.25;4971488;28;20046;-71
2021/12/09 00:20:48;;;;;;;8.80;4.40;;;;;;;3.55;100.00;99755.81;4968575;28;20031;-71
2021/12/09 00:23:14;;;;;;;9.90;4.47;;;;;;;3.50;100.00;99756.03;4963312;28;20396;-71
2021/12/09 00:25:43;;;;;;;14.35;4.45;;;;;;;3.47;100.00;99767.31;4969273;28;20051;-71
2021/12/09 00:28:12;;;;;;;20.02;4.32;;;;;;;3.44;100.00;99758.13;4971518;28;20035;-71
2021/12/09 00:30:38;;;;;;;13.32;4.00;;;;;;;3.49;100.00;99765.13;4967630;28;20122;-71
2021/12/09 00:33:05;;;;;;;11.98;4.72;;;;;;;3.47;100.00;99762.78;4970620;28;20042;-71
2021/12/09 00:35:42;;;;;;;11.40;3.47;;;;;;;3.48;100.00;99756.34;4972107;28;20061;-71
2021/12/09 00:38:10;;;;;;;11.57;4.63;;;;;;;3.42;100.00;99762.22;4963808;28;20091;-71
2021/12/09 00:40:36;;;;;;;13.18;3.60;;;;;;;3.62;100.00;99759.50;4966009;28;20062;-71
2021/12/09 00:43:03;;;;;;;18.30;4.75;;;;;;;3.56;100.00;99758.13;4970790;28;20043;-71
2021/12/09 00:45:29;;;;;;;18.15;4.25;;;;;;;3.49;100.00;99751.81;4970352;28;20074;-71
2021/12/09 00:47:54;;;;;;;15.35;5.75;;;;;;;3.47;100.00;99749.50;4968711;28;20516;-71
2021/12/09 00:50:20;;;;;;;12.48;4.45;;;;;;;3.44;100.00;99750.16;4963901;28;20047;-71
2021/12/09 00:52:46;;;;;;;11.98;4.28;;;;;;;3.49;100.00;99747.28;4968814;28;20022;-71
2021/12/09 00:55:16;;;;;;;7.60;3.25;;;;;;;3.53;100.00;99750.03;4971966;28;20046;-71
2021/12/09 00:57:42;;;;;;;16.27;4.40;;;;;;;3.39;100.00;99741.59;4970593;28;20047;-71
2021/12/09 01:00:14;;;;;;;11.63;3.67;;;;;;;3.44;100.00;99744.06;4960833;28;20563;-71
2021/12/09 01:02:40;;;;;;;10.98;4.20;;;;;;;3.42;100.00;99735.63;4970072;28;20566;-71
2021/12/09 01:05:07;;;;;;;18.70;5.22;;;;;;;3.40;100.00;99727.19;4964432;28;20118;-71
2021/12/09 01:07:34;;;;;;;15.80;4.05;;;;;;;3.41;100.00;99734.84;4966686;28;20046;-71
2021/12/09 01:09:59;;;;;;;16.15;4.55;;;;;;;3.51;100.00;99744.28;4967811;28;20071;-71
2021/12/09 01:12:25;;;;;;;15.55;5.00;;;;;;;3.46;100.00;99742.63;4969152;28;20089;-71
2021/12/09 01:14:51;;;;;;;13.23;5.22;;;;;;;3.55;100.00;99743.28;4974544;28;20038;-71
2021/12/09 01:17:16;;;;;;;19.50;4.68;;;;;;;3.44;100.00;99741.38;4974929;28;20559;-71
2021/12/09 01:19:42;;;;;;;11.32;4.57;;;;;;;3.36;100.00;99736.94;4972331;28;20076;-71
2021/12/09 01:22:08;;;;;;;12.50;4.22;;;;;;;3.35;100.00;99736.16;4974780;28;20129;-71
2021/12/09 01:24:34;;;;;;;10.88;4.45;;;;;;;3.55;100.00;99735.31;4973346;28;20038;-71
2021/12/09 01:27:00;;;;;;;13.48;4.15;;;;;;;3.43;100.00;99729.97;4968944;28;20043;-71
2021/12/09 01:29:35;;;;;;;21.23;4.82;;;;;;;3.33;100.00;99729.63;4971332;28;20062;-71
2021/12/09 01:32:04;;;;;;;12.40;4.53;;;;;;;3.32;100.00;99731.50;4974052;28;20026;-71
2021/12/09 01:34:30;;;;;;;11.05;4.00;;;;;;;3.30;100.00;99736.38;4972901;28;20148;-71
2021/12/09 01:36:56;;;;;;;15.77;6.20;;;;;;;3.31;100.00;99740.56;4963257;28;20430;-71
2021/12/09 01:39:21;;;;;;;15.00;4.15;;;;;;;3.30;100.00;99744.34;4962952;28;20091;-71
2021/12/09 01:41:48;;;;;;;18.45;5.53;;;;;;;3.33;100.00;99749.00;4965547;28;20047;-71
2021/12/09 01:44:14;;;;;;;12.70;4.28;;;;;;;3.33;100.00;99750.91;4969091;28;20038;-71
2021/12/09 01:46:40;;;;;;;12.15;4.97;;;;;;;3.29;100.00;99745.44;4972142;28;20035;-71
2021/12/09 01:49:05;;;;;;;10.00;3.63;;;;;;;3.34;100.00;99742.59;4973993;28;20043;-71
2021/12/09 01:51:31;;;;;;;18.55;6.47;;;;;;;3.32;100.00;99747.47;4972551;28;20105;-71
2021/12/09 01:53:57;;;;;;;15.55;4.65;;;;;;;3.37;100.00;99746.44;4972329;28;20034;-71
2021/12/09 01:56:26;;;;;;;14.30;4.35;;;;;;;3.32;100.00;99742.13;4969742;28;20035;-71
2021/12/09 01:58:59;;;;;;;11.07;4.10;;;;;;;3.29;100.00;99744.69;4965162;28;20034;-71
2021/12/09 02:01:25;;;;;;;15.05;4.28;;;;;;;3.24;100.00;99748.31;4973521;28;20039;-71
2021/12/09 02:03:52;;;;;;;12.48;4.43;;;;;;;3.39;100.00;99744.25;4972550;28;20412;-71
2021/12/09 02:06:18;;;;;;;12.05;3.38;;;;;;;3.33;100.00;99745.59;4971728;28;20030;-71
2021/12/09 02:08:44;;;;;;;14.27;4.47;;;;;;;3.20;100.00;99730.69;4970452;28;20035;-71
2021/12/09 02:11:10;;;;;;;11.82;3.83;;;;;;;3.28;100.00;99738.59;4965355;28;20150;-71
2021/12/09 02:13:36;;;;;;;15.20;4.63;;;;;;;3.32;100.00;99736.03;4972585;28;20026;-71
2021/12/09 02:16:03;;;;;;;14.35;4.18;;;;;;;3.25;100.00;99725.16;4973714;28;20047;-71
2021/12/09 02:18:28;;;;;;;10.98;3.72;;;;;;;3.27;100.00;99733.59;4972912;28;20035;-71
2021/12/09 02:21:18;;;;;;;8.27;3.67;;;;;;;3.25;100.00;99731.25;4966489;28;20049;-71
2021/12/09 02:23:59;;;;;;;19.60;4.95;;;;;;;3.22;100.00;99731.91;4965826;28;20066;-71
2021/12/09 02:26:29;;;;;;;15.80;4.40;;;;;;;3.28;100.00;99727.94;4972894;28;20502;-71
2021/12/09 02:28:55;;;;;;;10.30;3.30;;;;;;;3.17;100.00;99716.16;4971984;28;20082;-72
2021/12/09 02:31:22;;;;;;;13.02;4.75;;;;;;;3.16;100.00;99719.13;4964139;28;20106;-72
2021/12/09 02:33:48;;;;;;;16.05;5.85;;;;;;;3.23;100.00;99717.50;4971260;28;20034;-72
2021/12/09 02:36:14;;;;;;;18.65;5.15;;;;;;;3.14;100.00;99708.06;4973434;28;20041;-71
2021/12/09 02:38:46;;;;;;;15.90;5.00;;;;;;;3.20;100.00;99722.69;4969397;28;20082;-72
2021/12/09 02:41:17;;;;;;;19.88;5.75;;;;;;;3.28;100.00;99719.97;4964422;28;20027;-71
2021/12/09 02:43:46;;;;;;;22.30;4.43;;;;;;;3.17;100.00;99724.16;4969442;28;20306;-71
2021/12/09 02:46:11;;;;;;;21.60;4.72;;;;;;;3.10;100.00;99731.09;4965794;28;20298;-72
2021/12/09 02:48:37;;;;;;;15.65;4.72;;;;;;;3.16;100.00;99727.13;4967190;28;20569;-71
2021/12/09 02:51:05;;;;;;;18.13;5.40;;;;;;;3.18;100.00;99738.19;4988751;23;20065;-76
2021/12/09 02:53:30;;;;;;;13.95;4.85;;;;;;;3.23;100.00;99744.09;4987305;28;20030;-76
2021/12/09 02:55:56;;;;;;;12.15;4.55;;;;;;;3.23;100.00;99746.75;4990468;28;20035;-77
2021/12/09 02:58:21;;;;;;;13.05;5.22;;;;;;;3.17;100.00;99732.13;4993484;28;20372;-77
2021/12/09 03:00:58;;;;;;;12.57;5.07;;;;;;;3.20;100.00;99734.13;4972999;28;20129;-76
2021/12/09 03:03:25;;;;;;;10.75;4.45;;;;;;;3.20;100.00;99734.13;4972932;28;20030;-76
2021/12/09 03:05:53;;;;;;;15.52;4.60;;;;;;;3.26;100.00;99738.13;4988410;28;20042;-77
2021/12/09 03:08:23;;;;;;;17.48;4.95;;;;;;;3.24;100.00;99737.69;4993018;28;20042;-76
2021/12/09 03:10:49;;;;;;;28.27;5.73;;;;;;;3.14;100.00;99729.31;4992751;28;20038;-76
2021/12/09 03:13:16;;;;;;;14.82;4.68;;;;;;;3.15;100.00;99738.88;4989654;28;20042;-76
2021/12/09 03:15:41;;;;;;;14.07;5.28;;;;;;;3.15;100.00;99739.66;4976078;28;20088;-76
2021/12/09 03:18:06;;;;;;;21.13;5.25;;;;;;;3.17;100.00;99749.97;4992464;28;20046;-76
2021/12/09 03:20:32;;;;;;;17.83;5.22;;;;;;;3.15;100.00;99742.31;4992546;28;20041;-76
2021/12/09 03:22:57;;;;;;;18.70;4.38;;;;;;;3.15;100.00;99744.97;4988754;28;20030;-77
2021/12/09 03:25:23;;;;;;;15.63;4.72;;;;;;;3.24;100.00;99748.31;4990876;28;20031;-76
2021/12/09 03:27:50;;;;;;;14.10;3.83;;;;;;;3.30;100.00;99749.66;4989655;28;20483;-76
2021/12/09 03:30:18;;;;;;;19.42;5.28;;;;;;;3.24;100.00;99752.84;4992098;28;20038;-76
2021/12/09 03:32:43;;;;;;;19.00;5.93;;;;;;;3.20;100.00;99755.41;4991981;28;20046;-76
2021/12/09 03:35:13;;;;;;;14.77;4.55;;;;;;;3.21;100.00;99761.50;4990078;28;20042;-76
2021/12/09 03:37:40;;;;;;;24.45;5.20;;;;;;;3.12;100.00;99766.88;4991549;28;20038;-76
2021/12/09 03:40:07;;;;;;;19.73;5.43;;;;;;;3.15;100.00;99765.47;4992162;28;20030;-76
2021/12/09 03:42:34;;;;;;;13.68;4.88;;;;;;;3.11;100.00;99762.69;4991839;28;20562;-76
2021/12/09 03:45:00;;;;;;;12.10;5.10;;;;;;;3.06;100.00;99770.84;4972668;28;20043;-76
2021/12/09 03:47:28;;;;;;;11.55;4.80;;;;;;;3.07;100.00;99777.75;4979929;28;20038;-76
2021/12/09 03:49:54;;;;;;;8.55;3.90;;;;;;;3.07;100.00;99784.94;4991622;28;20156;-76
2021/12/09 03:52:19;;;;;;;11.70;4.15;;;;;;;3.06;100.00;99786.81;4985545;28;20129;-76
2021/12/09 03:54:45;;;;;;;16.90;4.68;;;;;;;3.08;100.00;99789.91;4979997;28;20094;-76
2021/12/09 03:57:12;;;;;;;12.30;4.78;;;;;;;3.13;100.00;99787.06;4970414;28;20117;-76
2021/12/09 03:59:38;;;;;;;16.27;5.43;;;;;;;3.18;100.00;99791.41;4997167;28;20046;-76
2021/12/09 04:02:04;;;;;;;13.75;4.85;;;;;;;3.09;100.00;99785.38;4988940;28;20041;-76
2021/12/09 04:04:31;;;;;;;10.80;4.55;;;;;;;3.11;100.00;99789.28;4991253;28;20120;-76
2021/12/09 04:06:57;;;;;;;16.80;4.78;;;;;;;3.09;100.00;99798.69;4986980;28;20037;-76
2021/12/09 04:09:23;;;;;;;16.75;5.97;;;;;;;3.19;100.00;99803.59;4991123;28;20038;-76
2021/12/09 04:11:53;;;;;;;10.98;4.07;;;;;;;3.14;100.00;99796.59;4991862;28;20168;-76
2021/12/09 04:14:20;;;;;;;18.35;5.10;;;;;;;3.07;100.00;99790.25;4988516;28;20495;-76
2021/12/09 04:16:46;;;;;;;13.63;4.72;;;;;;;3.07;100.00;99779.59;4990458;28;20030;-76
2021/12/09 04:19:12;;;;;;;9.57;4.40;;;;;;;3.09;100.00;99778.19;4990499;28;20473;-76
2021/12/09 04:21:39;;;;;;;14.00;4.65;;;;;;;3.17;100.00;99780.00;4991486;28;20110;-75
2021/12/09 04:24:08;;;;;;;24.95;6.75;;;;;;;3.29;100.00;99780.03;4985625;28;20034;-76
2021/12/09 04:26:49;;;;;;;13.63;4.45;;;;;;;3.14;100.00;99772.66;4991260;28;20038;-76
2021/12/09 04:29:15;;;;;;;12.07;4.10;;;;;;;3.12;100.00;99772.19;4990324;28;20073;-76
2021/12/09 04:31:41;;;;;;;16.80;5.43;;;;;;;3.09;100.00;99770.22;4990418;28;20062;-76
2021/12/09 04:34:07;;;;;;;11.55;4.65;;;;;;;3.11;100.00;99761.91;4987732;28;20038;-76
2021/12/09 04:36:33;;;;;;;18.73;5.43;;;;;;;3.07;100.00;99758.34;4989945;28;20094;-76
2021/12/09 04:38:59;;;;;;;10.95;4.25;;;;;;;3.08;100.00;99762.56;4984937;28;20045;-76
2021/12/09 04:41:24;;;;;;;13.77;4.22;;;;;;;3.07;100.00;99763.66;4989491;28;20034;-76
2021/12/09 04:43:50;;;;;;;12.23;5.32;;;;;;;3.10;100.00;99753.13;4990169;28;20107;-76
2021/12/09 04:46:17;;;;;;;14.05;4.60;;;;;;;3.09;100.00;99759.56;4990981;28;20495;-76
2021/12/09 04:48:46;;;;;;;19.98;4.70;;;;;;;3.11;100.00;99752.06;4977615;28;20808;-76
2021/12/09 04:51:11;;;;;;;19.67;4.43;;;;;;;3.17;100.00;99760.59;4990889;28;20041;-76
2021/12/09 04:53:37;;;;;;;14.82;4.30;;;;;;;3.27;100.00;99758.28;4989234;28;20035;-76
2021/12/09 04:56:03;;;;;;;19.15;4.90;;;;;;;3.20;100.00;99758.06;4991308;28;20046;-76
2021/12/09 04:58:28;;;;;;;17.58;4.25;;;;;;;3.23;100.00;99759.28;4988912;28;20030;-76
2021/12/09 05:00:57;;;;;;;15.35;4.38;;;;;;;3.21;100.00;99764.16;4989144;28;20041;-76
2021/12/09 05:03:22;;;;;;;19.42;4.40;;;;;;;3.19;100.00;99763.72;4989286;28;20409;-76
2021/12/09 05:05:51;;;;;;;22.45;6.63;;;;;;;3.16;100.00;99770.44;4984896;28;20030;-76
2021/12/09 05:08:20;;;;;;;17.13;4.97;;;;;;;3.25;100.00;99765.81;4980453;28;20038;-76
2021/12/09 05:13:25;;;;;;;11.52;4.28;;;;;;;3.08;100.00;99779.28;4989051;28;20180;-76
2021/12/09 05:15:51;;;;;;;18.85;5.15;;;;;;;3.08;100.00;99783.84;4990546;28;20041;-76
2021/12/09 05:18:20;;;;;;;14.18;3.95;;;;;;;3.06;100.00;99778.06;4990739;28;20100;-76
2021/12/09 05:20:46;;;;;;;17.13;4.40;;;;;;;3.09;100.00;99788.03;4990558;28;20038;-76
2021/12/09 05:23:17;;;;;;;14.68;4.40;;;;;;;3.09;100.00;99791.50;4990139;28;20117;-76
2021/12/09 05:25:43;;;;;;;14.50;5.13;;;;;;;3.11;100.00;99789.28;4987925;28;20034;-76
2021/12/09 05:28:11;;;;;;;12.38;3.97;;;;;;;3.18;100.00;99786.06;4978655;28;20037;-75
2021/12/09 05:32:07;;;;;;;18.45;5.30;;;;;;;3.11;100.00;99786.63;4983380;28;20085;-76
2021/12/09 05:33:25;;;;;;;15.10;4.25;;;;;;;3.12;100.00;99790.81;4987436;28;20125;-76
2021/12/09 05:35:51;;;;;;;15.07;4.75;;;;;;;3.26;100.00;99791.31;4989741;28;20038;-76
2021/12/09 05:38:17;;;;;;;16.90;4.78;;;;;;;3.10;100.00;99802.88;4989784;28;20022;-76
2021/12/09 05:40:42;;;;;;;11.57;4.57;;;;;;;3.04;100.00;99799.66;4989951;28;20045;-76
2021/12/09 05:43:07;;;;;;;14.48;5.45;;;;;;;3.03;100.00;99792.00;4999470;28;20069;-76
2021/12/09 05:45:33;;;;;;;13.35;4.95;;;;;;;3.07;100.00;99787.59;4991229;28;20062;-76
2021/12/09 05:47:59;;;;;;;10.70;4.25;;;;;;;3.08;100.00;99787.25;4993110;28;20128;-76
2021/12/09 05:50:25;;;;;;;20.00;4.78;;;;;;;3.13;100.00;99792.38;4993199;28;20487;-76
2021/12/09 05:52:50;;;;;;;16.58;4.70;;;;;;;3.01;100.00;99797.66;4992211;28;20145;-76
2021/12/09 05:55:16;;;;;;;20.00;5.53;;;;;;;2.98;100.00;99805.50;4990672;28;20057;-76
2021/12/09 05:57:41;;;;;;;22.25;5.53;;;;;;;3.04;100.00;99804.22;4993980;28;20038;-76
2021/12/09 06:00:08;;;;;;;16.75;4.20;;;;;;;2.99;100.00;99799.06;4984660;28;20026;-76
2021/12/09 06:02:39;;;;;;;10.85;3.58;;;;;;;3.01;100.00;99788.88;4988978;28;20038;-76
2021/12/09 06:05:05;;;;;;;11.50;3.75;;;;;;;3.07;100.00;99799.00;4992584;28;20045;-76
2021/12/09 06:07:30;;;;;;;10.05;4.30;;;;;;;3.20;100.00;99805.94;4993665;28;20045;-76
2021/12/09 06:09:56;;;;;;;15.98;4.97;;;;;;;3.09;100.00;99791.50;4989959;28;20061;-76
2021/12/09 06:12:22;;;;;;;15.63;4.65;;;;;;;3.00;100.00;99798.72;4993982;28;20042;-76
2021/12/09 06:14:48;;;;;;;14.15;4.88;;;;;;;3.01;100.00;99797.66;4990470;28;20038;-76
2021/12/09 06:17:13;;;;;;;17.05;6.07;;;;;;;2.98;100.00;99789.56;4993113;28;20031;-76
2021/12/09 06:19:39;;;;;;;7.05;3.60;;;;;;;3.02;100.00;99806.41;4993605;28;20038;-76
2021/12/09 06:22:04;;;;;;;17.80;3.97;;;;;;;3.02;100.00;99814.38;4993416;28;20038;-76
2021/12/09 06:24:30;;;;;;;19.80;5.20;;;;;;;2.99;100.00;99810.50;4990543;28;20046;-76
2021/12/09 06:26:55;;;;;;;15.50;4.18;;;;;;;2.99;100.00;99813.16;4992945;28;20392;-75
2021/12/09 06:29:20;;;;;;;14.27;3.80;;;;;;;2.93;100.00;99805.69;4993128;28;20117;-76
2021/12/09 06:31:46;;;;;;;10.07;4.78;;;;;;;2.88;100.00;99790.72;4990378;28;20042;-76
2021/12/09 06:34:12;;;;;;;13.35;4.88;;;;;;;3.02;100.00;99785.13;4991448;28;20066;-76
2021/12/09 06:36:40;;;;;;;13.80;5.43;;;;;;;2.93;100.00;99792.38;4992784;28;20039;-76
2021/12/09 06:39:05;;;;;;;15.18;4.82;;;;;;;2.96;100.00;99795.16;4991125;28;20410;-76
2021/12/09 06:41:31;;;;;;;11.95;5.10;;;;;;;2.95;100.00;99809.59;4989989;28;20018;-76
2021/12/09 06:43:57;;;;;;;17.17;5.22;;;;;;;2.96;100.00;99808.47;4992286;28;20054;-76
2021/12/09 06:46:22;;;;;;;13.20;4.25;;;;;;;3.00;100.00;99819.25;4990431;28;20038;-76
2021/12/09 06:48:48;;;;;;;23.35;5.43;;;;;;;3.14;100.00;99817.88;4984365;28;20030;-76
2021/12/09 06:51:14;;;;;;;17.33;4.63;;;;;;;3.01;100.00;99810.16;4989029;28;20034;-76
2021/12/09 06:53:39;;;;;;;13.43;4.82;;;;;;;2.97;100.00;99820.66;4988570;28;20031;-76
2021/12/09 06:56:06;;;;;;;18.40;5.47;;;;;;;2.90;100.00;99811.66;4987115;28;20030;-76
2021/12/09 06:58:32;;;;;;;18.20;5.60;;;;;;;2.87;100.00;99825.59;4981673;28;20031;-76
2021/12/09 07:01:00;;;;;;;12.77;4.90;;;;;;;2.91;100.00;99821.19;4975884;28;20049;-77
2021/12/09 07:03:25;;;;;;;16.63;5.53;;;;;;;2.88;100.00;99827.94;4976523;28;20059;-77
2021/12/09 07:05:52;;;;;;;12.95;5.20;;;;;;;2.89;100.00;99834.78;4983899;28;20517;-77
2021/12/09 07:08:19;;;;;;;20.73;5.82;;;;;;;3.02;100.00;99823.13;4982952;28;20081;-77
2021/12/09 07:10:45;;;;;;;13.15;5.30;;;;;;;2.94;100.00;99834.63;4983287;28;20038;-77
2021/12/09 07:13:11;;;;;;;9.25;4.13;;;;;;;3.02;100.00;99820.47;4978594;28;20070;-77
2021/12/09 07:15:37;;;;;;;12.23;5.05;;;;;;;2.96;100.00;99829.72;4984266;28;20061;-77
2021/12/09 07:18:05;;;;;;;13.85;4.93;;;;;;;2.98;100.00;99835.50;4981908;28;20034;-77
2021/12/09 07:20:34;;;;;;;12.40;3.90;;;;;;;2.84;100.00;99835.00;4983182;28;20048;-77
2021/12/09 07:23:00;;;;;;;18.88;5.38;;;;;;;2.83;100.00;99830.78;4978177;28;20109;-78
2021/12/09 07:25:28;;;;;;;16.35;5.22;;;;;;;2.80;100.00;99841.28;4975283;28;20026;-76
2021/12/09 07:27:54;;;;;;;16.77;5.43;;;;;;;2.86;100.00;99824.03;4980702;28;20038;-77
2021/12/09 07:30:22;;;;;;;17.67;5.35;;;;;;;2.85;100.00;99825.91;4999537;28;20049;-77
2021/12/09 07:32:48;;;;;;;10.85;4.80;;;;;;;2.89;100.00;99829.47;4981427;28;20088;-77
2021/12/09 07:35:15;;;;;;;11.23;3.38;;;;;;;3.01;100.00;99823.44;4980365;28;20066;-77
2021/12/09 07:37:41;;;;;;;10.05;4.07;;;;;;;3.00;100.00;99835.19;4984661;28;20399;-77
2021/12/09 07:40:16;;;;;;;21.02;5.88;;;;;;;2.89;100.00;99844.66;4986430;28;20037;-77
2021/12/09 07:42:41;;;;;;;12.90;4.72;;;;;;;2.95;100.00;99838.81;4993984;28;20117;-77
2021/12/09 07:45:10;;;;;;;17.65;5.20;;;;;;;2.93;100.00;99838.38;4984225;28;20109;-77
2021/12/09 07:47:35;;;;;;;15.32;4.90;;;;;;;3.06;100.00;99845.31;4986919;28;20030;-77
2021/12/09 07:50:03;;;;;;;18.60;5.32;;;;;;;2.97;100.00;99841.94;4986192;28;20498;-76
2021/12/09 07:52:28;;;;;;;13.63;4.15;;;;;;;3.00;100.00;99843.19;4979083;28;20037;-76
2021/12/09 07:54:54;;;;;;;15.05;5.03;;;;;;;2.95;100.00;99846.00;4981931;28;20030;-77
2021/12/09 07:57:19;;;;;;;25.48;4.90;;;;;;;2.97;100.00;99843.81;4986112;28;20577;-77
2021/12/09 07:59:45;;;;;;;12.02;4.25;;;;;;;2.96;100.00;99852.91;4983969;28;20082;-76
2021/12/09 08:02:11;;;;;;;14.98;5.93;;;;;;;2.98;100.00;99848.03;4980675;28;20045;-77
2021/12/09 08:04:37;;;;;;;17.23;5.53;;;;;;;2.97;100.00;99863.22;4982173;28;20459;-77
2021/12/09 08:07:03;;;;;;;14.10;4.57;;;;;;;2.93;100.00;99858.84;4974679;28;20045;-77
2021/12/09 08:09:28;;;;;;;12.85;4.40;;;;;;;2.98;100.00;99858.69;4978952;28;20103;-77
2021/12/09 08:11:54;;;;;;;22.40;7.28;;;;;;;2.96;100.00;99860.88;4984476;28;20031;-76
2021/12/09 08:14:20;;;;;;;21.30;5.53;;;;;;;2.97;100.00;99860.53;4977723;28;20035;-77
2021/12/09 08:16:56;;;;;;;14.52;4.82;;;;;;;2.88;100.00;99865.16;4998042;28;20022;-77
2021/12/09 08:19:21;;;;;;;11.07;4.10;;;;;;;2.86;100.00;99867.34;4978259;28;20427;-77
2021/12/09 08:21:46;;;;;;;10.27;3.75;;;;;;;3.04;100.00;99868.78;4990210;28;20120;-77
2021/12/09 08:24:12;;;;;;;14.00;4.88;;;;;;;2.87;100.00;99868.09;4984639;28;20034;-77
2021/12/09 08:26:38;;;;;;;21.30;5.60;;;;;;;2.88;100.00;99873.13;4984431;28;20125;-76
2021/12/09 08:29:05;;;;;;;23.50;5.10;;;;;;;2.83;100.00;99873.31;4989004;28;20506;-77
2021/12/09 08:31:33;;;;;;;16.85;5.20;;;;;;;2.95;100.00;99878.69;4982758;28;21948;-75
2021/12/09 08:34:00;;;;;;;21.85;6.05;;;;;;;2.87;100.00;99879.53;4978836;28;20034;-76
2021/12/09 08:36:26;;;;;;;19.55;6.55;;;;;;;2.96;100.00;99880.25;4970988;28;20057;-76
2021/12/09 08:38:52;;;;;;;15.13;4.78;;;;;;;2.91;100.00;99872.47;4981994;28;20034;-76
2021/12/09 08:41:19;;;;;;;24.02;6.25;;;;;;;2.93;100.00;99872.94;4975200;28;20096;-75
2021/12/09 08:43:45;;;;;;;17.17;4.78;;;;;;;2.97;100.00;99868.53;4984744;28;20058;-76
2021/12/09 08:46:11;;;;;;;17.92;5.78;;;;;;;2.92;100.00;99868.72;4980493;28;20502;-76
2021/12/09 08:48:37;;;;;;;14.02;4.82;;;;;;;2.96;100.00;99868.84;4983903;28;20108;-76
2021/12/09 08:51:02;;;;;;;13.25;5.32;;;;;;;3.05;100.00;99857.06;4999338;28;20040;-76
2021/12/09 08:53:28;;;;;;;25.63;7.55;;;;;;;3.03;100.00;99861.91;4998152;23;20051;-70
2021/12/09 08:55:54;;;;;;;23.27;4.20;;;;;;;3.02;100.00;99857.69;4985685;28;20383;-71
2021/12/09 08:58:20;;;;;;;14.43;5.10;;;;;;;3.00;100.00;99861.78;4988012;28;20041;-70
2021/12/09 09:00:46;;;;;;;15.80;5.05;;;;;;;2.99;100.00;99857.56;4984503;28;20041;-70
2021/12/09 09:03:14;;;;;;;11.95;4.25;;;;;;;3.08;100.00;99861.72;4991456;28;20031;-70
2021/12/09 09:05:40;;;;;;;11.63;5.03;;;;;;;3.01;100.00;99861.47;4994581;28;20100;-69
2021/12/09 09:08:06;;;;;;;17.83;5.32;;;;;;;2.99;100.00;99861.00;4979511;28;20125;-71
2021/12/09 09:10:35;;;;;;;11.63;4.03;;;;;;;3.18;100.00;99853.34;4987709;28;20113;-69
2021/12/09 09:13:01;;;;;;;14.73;5.90;;;;;;;3.09;100.00;99868.59;4973838;28;20062;-71
2021/12/09 09:15:31;;;;;;;19.27;5.43;;;;;;;3.05;100.00;99862.38;4957476;28;20069;-70
2021/12/09 09:17:56;;;;;;;17.30;5.88;;;;;;;3.11;100.00;99861.09;4979712;28;20042;-70
2021/12/09 09:20:25;;;;;;;16.38;5.13;;;;;;;3.07;100.00;99857.50;4983168;28;20090;-69
2021/12/09 09:22:51;;;;;;;25.38;6.13;;;;;;;3.11;100.00;99854.97;4985297;28;20490;-69
2021/12/09 09:25:22;;;;;;;19.67;5.47;;;;;;;3.15;100.00;99858.53;4985168;28;20035;-71
2021/12/09 09:27:48;;;;;;;16.05;4.75;;;;;;;3.16;100.00;99855.56;4992550;28;20069;-70
2021/12/09 09:30:18;;;;;;;17.08;6.60;;;;;;;3.25;100.00;99853.59;5002159;28;20030;-69
2021/12/09 09:32:48;;;;;;;15.93;4.40;;;;;;;3.17;100.00;99864.31;4985592;28;20030;-70
2021/12/09 09:35:14;;;;;;;13.00;5.90;;;;;;;3.17;100.00;99856.34;4992452;28;20077;-71
2021/12/09 09:37:40;;;;;;;18.20;5.95;;;;;;;3.23;100.00;99849.72;4999688;28;20045;-69
2021/12/09 09:40:12;;;;;;;18.30;5.82;;;;;;;3.23;100.00;99849.72;4994691;28;20041;-71
2021/12/09 09:45:07;;;;;;;11.45;5.13;;;;;;;3.31;100.00;99852.28;4986035;28;20031;-73
2021/12/09 09:47:34;;;;;;;17.58;4.78;;;;;;;3.19;100.00;99854.13;4990958;28;20093;-69
2021/12/09 09:50:06;;;;;;;20.65;5.85;;;;;;;3.10;100.00;99843.56;4989581;28;20034;-69
2021/12/09 09:52:32;;;;;;;16.35;4.78;;;;;;;3.23;100.00;99834.53;4984140;28;20038;-70
2021/12/09 09:54:59;;;;;;;17.90;5.93;;;;;;;3.11;100.00;99847.78;4989386;28;20116;-70
2021/12/09 09:57:25;;;;;;;17.52;5.63;;;;;;;3.06;100.00;99847.19;4988028;28;20031;-70
2021/12/09 09:59:51;;;;;;;15.15;4.15;;;;;;;3.20;100.00;99847.69;4981828;28;20378;-70
2021/12/09 10:02:17;;;;;;;14.23;4.82;;;;;;;3.17;100.00;99845.69;4996155;28;20045;-69
2021/12/09 10:07:10;;;;;;;16.17;5.60;;;;;;;3.14;100.00;99856.97;4987808;28;20165;-70
2021/12/09 10:09:36;;;;;;;22.92;5.00;;;;;;;3.05;100.00;99865.03;4991566;28;20038;-70
2021/12/09 10:12:02;;;;;;;16.08;5.28;;;;;;;3.09;100.00;99852.66;4990528;28;20046;-72
2021/12/09 10:14:32;;;;;;;20.63;5.65;;;;;;;3.01;100.00;99856.13;4988889;28;20060;-69
2021/12/09 10:17:18;;;;;;;12.63;4.25;;;;;;;3.03;100.00;99861.13;4987344;28;20174;-68
2021/12/09 10:19:46;;;;;;;22.13;5.47;;;;;;;3.11;100.00;99860.28;4992141;28;20038;-70
2021/12/09 10:22:19;;;;;;;18.83;6.72;;;;;;;3.05;100.00;99854.41;4987536;28;20375;-71
2021/12/09 10:24:47;;;;;;;22.15;5.72;;;;;;;3.16;100.00;99852.91;4989396;28;20037;-70
2021/12/09 10:27:21;;;;;;;15.13;4.35;;;;;;;3.15;100.00;99846.03;4988619;28;20038;-71
2021/12/09 10:29:47;;;;;;;19.10;5.28;;;;;;;3.03;100.00;99845.97;4989481;28;20035;-70
2021/12/09 10:32:25;;;;;;;21.40;4.45;;;;;;;3.04;100.00;99854.72;4986509;28;20026;-70
2021/12/09 10:34:51;;;;;;;13.98;4.63;;;;;;;3.11;100.00;99847.78;4988117;28;20035;-69
2021/12/09 10:37:24;;;;;;;13.40;4.47;;;;;;;3.11;100.00;99839.03;4995124;28;20030;-71
2021/12/09 10:40:03;;;;;;;13.30;4.78;;;;;;;3.14;100.00;99841.81;5006381;28;20038;-69
2021/12/09 10:42:51;;;;;;;16.13;5.13;;;;;;;3.29;99.73;99833.22;4993556;28;20121;-69
2021/12/09 10:45:28;;;;;;;14.27;4.55;;;;;;;3.13;100.00;99820.84;5001473;28;20087;-70
2021/12/09 10:48:16;;;;;;;18.48;4.72;;;;;;;3.09;100.00;99822.59;4987809;28;20039;-70
2021/12/09 10:50:53;;;;;;;15.88;5.97;;;;;;;3.14;100.00;99831.16;4981603;28;20038;-70
2021/12/09 10:55:55;;;;;;;16.35;5.35;;;;;;;3.23;100.00;99815.16;4989146;28;20045;-69
2021/12/09 10:58:24;;;;;;;14.73;4.00;;;;;;;3.29;100.00;99827.91;4989300;28;20042;-72
2021/12/09 11:00:55;;;;;;;12.43;5.32;;;;;;;3.34;100.00;99826.94;4986176;28;20065;-69
2021/12/09 11:03:25;;;;;;;14.70;5.05;;;;;;;3.23;100.00;99829.19;4979543;28;20486;-71
2021/12/09 11:06:00;;;;;;;14.68;4.78;;;;;;;3.27;100.00;99824.78;4971049;28;20038;-69
2021/12/09 11:08:31;;;;;;;17.48;5.22;;;;;;;3.19;100.00;99832.84;4985138;28;20038;-72
2021/12/09 11:11:05;;;;;;;13.95;4.68;;;;;;;3.36;100.00;99828.16;4990984;28;20049;-69
2021/12/09 11:13:42;;;;;;;17.90;5.68;;;;;;;3.25;100.00;99834.97;4991394;28;20116;-70
2021/12/09 11:16:08;;;;;;;18.92;4.60;;;;;;;3.28;100.00;99826.34;4987936;28;20045;-70
2021/12/09 11:18:45;;;;;;;12.45;4.65;;;;;;;3.24;100.00;99825.44;4996445;28;20108;-69
2021/12/09 11:21:22;;;;;;;17.60;5.97;;;;;;;3.24;100.00;99819.34;4976454;28;20031;-69
2021/12/09 11:23:57;;;;;;;16.35;5.85;;;;;;;3.33;100.00;99815.50;4983434;28;20527;-71
2021/12/09 11:26:34;;;;;;;17.83;4.50;;;;;;;3.28;100.00;99821.03;4986522;28;20069;-69
2021/12/09 11:29:07;;;;;;;21.27;5.75;;;;;;;3.26;100.00;99809.94;4974949;28;20074;-71
2021/12/09 11:31:39;;;;;;;19.67;4.90;;;;;;;3.25;100.00;99799.63;4994580;28;20077;-71
2021/12/09 11:34:11;;;;;;;11.20;4.30;;;;;;;3.42;100.00;99794.94;4990810;28;20030;-73
2021/12/09 11:36:43;;;;;;;22.02;5.35;;;;;;;3.53;99.38;99796.06;4976191;28;20137;-71
2021/12/09 11:39:19;;;;;;;17.35;4.15;;;;;;;3.37;99.59;99792.47;4977419;28;20054;-70